Time;durP1;ratioP1;P1;durP2;ratioP2;P2;SDS_P1;SDS_P2;PMS_P1;PMS_P2;Temp;Humidity;BMP_temperature;BMP_pressure;BME280_temperature;BME280_humidity;BME280_pressure;Samples;Min_cycle;Max_cycle;Signal;HPM_P1;HPM_P2
2024/01/23 00:01:00;;;;;;;4.10;2.10;;;;;;;17.79;51.66;101085.38;5086089;28;20227;-65
2024/01/23 00:03:25;;;;;;;7.60;1.83;;;;;;;17.73;52.09;101086.81;5051462;28;20209;-65
2024/01/23 00:05:51;;;;;;;4.90;1.77;;;;;;;17.72;52.27;101087.16;5051436;28;20960;-65
2024/01/23 00:08:16;;;;;;;5.97;2.40;;;;;;;17.73;52.52;101085.97;5051272;28;20147;-65
2024/01/23 00:10:42;;;;;;;6.00;2.30;;;;;;;17.77;52.02;101104.06;5078944;28;20534;-63
2024/01/23 00:13:07;;;;;;;4.30;1.53;;;;;;;17.76;51.80;101096.69;5089897;28;20186;-64
2024/01/23 00:15:35;;;;;;;7.40;1.70;;;;;;;17.76;52.20;101096.69;5068661;28;20179;-64
2024/01/23 00:18:00;;;;;;;4.70;2.10;;;;;;;17.73;52.12;101103.09;5067417;28;20275;-65
2024/01/23 00:20:26;;;;;;;3.90;2.10;;;;;;;17.79;51.81;101111.09;5060522;28;20409;-65
2024/01/23 00:22:52;;;;;;;7.07;1.80;;;;;;;17.76;52.22;101103.22;5077233;28;20171;-64
2024/01/23 00:25:17;;;;;;;4.70;1.97;;;;;;;17.76;51.99;101103.22;5080205;28;20181;-64
2024/01/23 00:27:43;;;;;;;4.10;1.50;;;;;;;17.75;52.09;101106.47;5066798;28;20218;-64
2024/01/23 00:30:09;;;;;;;4.60;1.83;;;;;;;17.73;51.78;101095.38;5081358;28;20191;-65
2024/01/23 00:32:35;;;;;;;8.23;1.63;;;;;;;17.70;52.41;101098.94;5051499;28;20689;-65
2024/01/23 00:35:00;;;;;;;6.70;1.77;;;;;;;17.75;51.78;101098.72;5071362;28;20440;-66
2024/01/23 00:37:26;;;;;;;5.53;1.53;;;;;;;17.74;51.80;101094.19;5072068;28;20202;-65
2024/01/23 00:39:52;;;;;;;3.10;1.30;;;;;;;17.71;52.06;101100.59;5090600;28;20170;-65
2024/01/23 00:42:17;;;;;;;4.43;1.90;;;;;;;17.75;51.58;101100.75;5072042;28;20193;-65
2024/01/23 00:44:43;;;;;;;3.87;1.37;;;;;;;17.76;51.87;101103.22;5053320;28;20432;-65
2024/01/23 00:47:09;;;;;;;4.50;1.70;;;;;;;17.73;52.00;101115.38;5053061;28;20183;-65
2024/01/23 00:49:34;;;;;;;5.13;2.00;;;;;;;17.76;51.54;101114.66;5054151;28;20194;-65
2024/01/23 00:51:59;;;;;;;4.07;1.50;;;;;;;17.79;51.38;101111.09;5087975;28;20178;-66
2024/01/23 00:54:25;;;;;;;5.30;1.90;;;;;;;17.74;51.75;101108.47;5054042;28;20174;-64
2024/01/23 00:56:50;;;;;;;3.20;1.20;;;;;;;17.77;51.49;101104.91;5053407;28;20187;-65
2024/01/23 00:59:16;;;;;;;4.80;1.63;;;;;;;17.77;51.62;101116.34;5070682;28;20216;-64
2024/01/23 01:01:42;;;;;;;5.77;1.70;;;;;;;17.75;51.38;101112.16;5079083;28;20197;-64
2024/01/23 01:04:07;;;;;;;4.13;1.30;;;;;;;17.74;51.91;101119.88;5086755;28;20432;-64
2024/01/23 01:06:33;;;;;;;6.87;1.50;;;;;;;17.76;51.43;101114.66;5071781;28;20203;-66
2024/01/23 01:08:59;;;;;;;5.00;1.83;;;;;;;17.74;51.28;101107.63;5055021;28;20246;-65
2024/01/23 01:11:24;;;;;;;5.50;1.80;;;;;;;17.74;51.74;101119.88;5071349;28;20183;-65
2024/01/23 01:13:50;;;;;;;4.30;1.80;;;;;;;17.74;51.59;101130.47;5090016;28;20469;-65
2024/01/23 01:16:15;;;;;;;4.43;1.50;;;;;;;17.75;51.17;101130.13;5090073;28;20186;-66
2024/01/23 01:18:41;;;;;;;3.27;1.43;;;;;;;17.75;51.19;101117.88;5067693;28;20170;-65
2024/01/23 01:21:07;;;;;;;4.70;1.27;;;;;;;17.77;51.02;101133.47;5071631;28;20186;-65
2024/01/23 01:23:34;;;;;;;3.00;1.40;;;;;;;17.73;51.36;101121.09;5089029;28;20174;-64
2024/01/23 01:25:59;;;;;;;6.53;1.80;;;;;;;17.69;51.70;101133.56;5089608;28;20459;-64
2024/01/23 01:28:25;;;;;;;3.00;1.50;;;;;;;17.71;51.28;101139.75;5071677;28;20401;-65
2024/01/23 01:30:50;;;;;;;3.90;1.50;;;;;;;17.70;51.14;101141.78;5071626;28;20601;-65
2024/01/23 01:33:17;;;;;;;3.53;1.20;;;;;;;17.71;51.25;101139.75;5040487;28;20171;-65
2024/01/23 01:35:42;;;;;;;3.20;1.60;;;;;;;17.71;51.29;101145.47;5050578;28;20865;-64
2024/01/23 01:38:08;;;;;;;3.37;1.50;;;;;;;17.70;51.29;101160.94;5035113;28;20413;-64
2024/01/23 01:40:33;;;;;;;2.47;1.30;;;;;;;17.70;51.67;101160.94;5051958;28;20197;-64
2024/01/23 01:42:58;;;;;;;4.07;1.63;;;;;;;17.67;51.22;101150.22;5056615;28;20165;-64
2024/01/23 01:45:24;;;;;;;2.77;1.50;;;;;;;17.68;51.37;101158.44;5074916;28;20165;-64
2024/01/23 01:47:50;;;;;;;3.50;1.77;;;;;;;17.64;51.76;101153.78;5089467;28;20167;-64
2024/01/23 01:50:16;;;;;;;5.50;1.80;;;;;;;17.68;51.13;101151.88;5064929;28;20205;-65
2024/01/23 01:52:41;;;;;;;3.80;1.83;;;;;;;17.66;51.27;101148.56;5070455;28;20421;-66
2024/01/23 01:55:07;;;;;;;4.40;1.33;;;;;;;17.62;51.93;101137.03;5077598;28;20174;-66
2024/01/23 01:57:33;;;;;;;2.87;1.43;;;;;;;17.68;51.28;101140.47;5073787;28;20170;-65
2024/01/23 01:59:59;;;;;;;3.07;1.30;;;;;;;17.66;51.25;101142.84;5039962;28;20178;-65
2024/01/23 02:02:25;;;;;;;3.33;1.40;;;;;;;17.66;51.17;101152.22;5068161;28;20432;-64
2024/01/23 02:04:51;;;;;;;3.20;1.20;;;;;;;17.68;51.08;101157.59;5072629;28;20201;-65
2024/01/23 02:07:16;;;;;;;3.20;1.50;;;;;;;17.70;50.82;101158.91;5072719;28;20436;-65
2024/01/23 02:09:42;;;;;;;2.37;1.03;;;;;;;17.64;51.08;101166.03;5074316;28;20221;-64
2024/01/23 02:12:08;;;;;;;2.97;1.10;;;;;;;17.64;50.89;101157.47;5074570;28;20170;-65
2024/01/23 02:14:33;;;;;;;3.37;1.37;;;;;;;17.66;50.75;101160.00;5074814;28;20190;-64
2024/01/23 02:16:59;;;;;;;5.00;2.00;;;;;;;17.67;51.03;101153.09;5091965;28;20454;-65
2024/01/23 02:19:27;;;;;;;2.77;1.30;;;;;;;17.65;51.22;101152.63;5074239;28;20223;-65
2024/01/23 02:21:54;;;;;;;2.80;1.13;;;;;;;17.63;51.40;101149.25;5060054;28;20178;-65
2024/01/23 02:24:19;;;;;;;5.53;1.40;;;;;;;17.59;51.38;101160.56;5092813;28;20409;-64
2024/01/23 02:26:45;;;;;;;4.93;1.40;;;;;;;17.58;51.56;101169.47;5057155;28;20759;-65
2024/01/23 02:29:10;;;;;;;3.10;1.40;;;;;;;17.60;51.70;101169.97;5057307;28;20579;-66
2024/01/23 02:31:36;;;;;;;4.57;1.33;;;;;;;17.58;51.27;101170.31;5059985;28;20583;-65
2024/01/23 02:34:01;;;;;;;3.50;1.30;;;;;;;17.58;51.26;101167.47;5074224;28;20515;-64
2024/01/23 02:36:27;;;;;;;2.93;1.20;;;;;;;17.62;50.91;101165.59;5057901;28;20163;-64
2024/01/23 02:38:52;;;;;;;4.70;1.50;;;;;;;17.58;51.11;101167.47;5039604;28;20163;-64
2024/01/23 02:41:18;;;;;;;3.23;1.30;;;;;;;17.64;51.19;101182.34;5090729;28;20559;-64
2024/01/23 02:43:43;;;;;;;4.10;1.53;;;;;;;17.62;51.00;101171.28;5091129;28;20182;-65
2024/01/23 02:46:09;;;;;;;4.97;1.37;;;;;;;17.60;50.95;101173.66;5072986;28;20182;-64
2024/01/23 02:48:34;;;;;;;2.53;1.30;;;;;;;17.61;50.99;101181.00;5071286;28;20247;-65
2024/01/23 02:51:00;;;;;;;3.30;1.30;;;;;;;17.60;51.58;101185.06;5072490;28;20289;-64
2024/01/23 02:53:25;;;;;;;4.13;1.30;;;;;;;17.61;50.88;101186.72;5055271;28;20228;-64
2024/01/23 02:55:50;;;;;;;4.03;1.43;;;;;;;17.64;51.10;101186.03;5088720;28;20193;-64
2024/01/23 02:58:18;;;;;;;3.10;1.50;;;;;;;17.63;50.56;101192.94;5072922;28;20189;-65
2024/01/23 03:00:43;;;;;;;3.90;1.20;;;;;;;17.60;51.04;101189.97;5057776;28;20159;-65
2024/01/23 03:03:09;;;;;;;3.23;1.50;;;;;;;17.61;51.33;101186.72;5056083;28;20474;-66
2024/01/23 03:05:35;;;;;;;2.23;1.10;;;;;;;17.60;50.79;101193.63;5072257;28;20200;-64
2024/01/23 03:08:00;;;;;;;2.63;1.10;;;;;;;17.58;50.45;101181.75;5071153;28;20175;-64
2024/01/23 03:10:26;;;;;;;7.10;1.30;;;;;;;17.58;50.86;101198.88;5070521;28;20225;-65
2024/01/23 03:12:52;;;;;;;2.20;1.00;;;;;;;17.60;51.04;101207.09;5051989;28;20186;-64
2024/01/23 03:15:17;;;;;;;4.23;1.30;;;;;;;17.60;50.85;101216.47;5087710;28;20735;-65
2024/01/23 03:17:43;;;;;;;3.10;1.20;;;;;;;17.58;50.86;101210.28;5072103;28;20420;-66
2024/01/23 03:20:09;;;;;;;3.53;1.47;;;;;;;17.61;50.74;101215.28;5052921;28;20189;-64
2024/01/23 03:22:35;;;;;;;4.77;1.20;;;;;;;17.59;50.69;101217.66;5072965;28;20182;-64
2024/01/23 03:25:00;;;;;;;2.47;1.40;;;;;;;17.60;50.81;101218.50;5072608;28;20427;-65
2024/01/23 03:27:26;;;;;;;3.70;1.40;;;;;;;17.63;50.61;101218.63;5056087;28;20340;-64
2024/01/23 03:29:52;;;;;;;5.00;1.37;;;;;;;17.56;51.08;101214.69;5090622;28;20206;-64
2024/01/23 03:32:18;;;;;;;2.37;1.30;;;;;;;17.59;50.95;101206.25;5073550;28;20208;-66
2024/01/23 03:34:43;;;;;;;3.13;1.40;;;;;;;17.54;50.97;101203.63;5054204;28;20440;-64
2024/01/23 03:37:09;;;;;;;3.90;1.40;;;;;;;17.57;50.79;101216.34;5065865;28;20187;-65
2024/01/23 03:39:34;;;;;;;2.97;1.47;;;;;;;17.58;51.00;101230.28;5060378;28;20178;-64
2024/01/23 03:42:00;;;;;;;3.30;1.57;;;;;;;17.56;51.42;101220.41;5071612;28;20199;-64
2024/01/23 03:44:25;;;;;;;3.20;1.30;;;;;;;17.55;51.14;101236.69;5072132;28;20780;-65
2024/01/23 03:46:51;;;;;;;3.40;1.23;;;;;;;17.57;50.62;101239.19;5072087;28;20197;-65
2024/01/23 03:49:17;;;;;;;3.00;1.10;;;;;;;17.57;50.92;101242.03;5089286;28;20201;-65
2024/01/23 03:51:44;;;;;;;2.70;1.47;;;;;;;17.57;50.78;101259.19;5070130;28;20182;-64
2024/01/23 03:54:09;;;;;;;3.80;1.00;;;;;;;17.56;51.10;101263.22;5055407;28;20682;-65
2024/01/23 03:56:35;;;;;;;2.53;1.20;;;;;;;17.56;51.05;101266.91;5051368;28;20519;-64
2024/01/23 03:59:00;;;;;;;2.90;1.30;;;;;;;17.55;50.66;101256.66;5039784;28;20592;-64
2024/01/23 04:01:26;;;;;;;2.43;0.90;;;;;;;17.57;50.96;101248.59;5055632;28;20186;-64
2024/01/23 04:03:51;;;;;;;2.93;1.27;;;;;;;17.57;50.73;101262.88;5072319;28;20263;-64
2024/01/23 04:06:16;;;;;;;3.37;1.30;;;;;;;17.56;50.96;101269.75;5057709;28;20261;-64
2024/01/23 04:08:43;;;;;;;2.63;1.20;;;;;;;17.58;50.75;101267.41;5072228;28;20228;-64
2024/01/23 04:11:08;;;;;;;6.97;1.93;;;;;;;17.57;50.97;101291.44;5070931;28;20194;-65
2024/01/23 04:13:34;;;;;;;2.90;1.40;;;;;;;17.56;50.79;101284.03;5071523;28;20488;-65
2024/01/23 04:15:59;;;;;;;2.80;1.30;;;;;;;17.56;50.77;101286.06;5053887;28;20190;-64
2024/01/23 04:18:24;;;;;;;2.37;1.10;;;;;;;17.56;50.62;101280.34;5039058;28;20178;-65
2024/01/23 04:20:50;;;;;;;3.00;1.20;;;;;;;17.58;50.70;101297.97;5090772;28;20174;-64
2024/01/23 04:23:15;;;;;;;3.23;1.33;;;;;;;17.57;50.52;101311.41;5071014;28;20684;-66
2024/01/23 04:25:41;;;;;;;3.87;1.40;;;;;;;17.54;50.51;101339.81;5055557;28;20197;-64
2024/01/23 04:28:06;;;;;;;2.83;1.33;;;;;;;17.54;50.97;101337.81;5052398;28;20236;-64
2024/01/23 04:30:32;;;;;;;3.57;1.50;;;;;;;17.57;50.48;101336.28;5051487;28;20191;-65
2024/01/23 04:32:57;;;;;;;2.03;0.90;;;;;;;17.56;50.98;101343.16;5031488;28;20195;-65
2024/01/23 04:35:23;;;;;;;2.87;1.03;;;;;;;17.56;50.64;101354.59;5031464;28;20180;-64
2024/01/23 04:37:48;;;;;;;2.27;1.10;;;;;;;17.52;50.92;101357.31;5045261;28;20282;-64
2024/01/23 04:40:14;;;;;;;2.63;1.00;;;;;;;17.57;50.79;101368.53;5069382;28;20879;-65
2024/01/23 04:42:39;;;;;;;3.53;1.50;;;;;;;17.55;50.70;101370.06;5051159;28;20580;-65
2024/01/23 04:45:08;;;;;;;3.83;1.60;;;;;;;17.57;51.12;101362.81;5050093;28;20205;-64
2024/01/23 04:47:33;;;;;;;2.13;1.03;;;;;;;17.58;50.68;101369.34;5050927;28;20183;-64
2024/01/23 04:49:59;;;;;;;3.90;1.20;;;;;;;17.54;50.67;101374.91;5049037;28;20510;-64
2024/01/23 04:52:24;;;;;;;2.43;0.90;;;;;;;17.58;50.47;101389.31;5052342;28;20183;-63
2024/01/23 04:54:50;;;;;;;2.23;1.03;;;;;;;17.55;50.46;101379.44;5049362;28;20180;-64
2024/01/23 04:57:17;;;;;;;3.50;1.10;;;;;;;17.53;50.84;101380.97;5070184;28;20222;-64
2024/01/23 04:59:42;;;;;;;2.17;1.23;;;;;;;17.58;50.88;101372.19;5052089;28;20205;-64
2024/01/23 05:02:08;;;;;;;2.13;1.00;;;;;;;17.58;50.51;101369.34;5023572;28;20477;-64
2024/01/23 05:04:33;;;;;;;3.07;1.13;;;;;;;17.54;50.61;101357.78;5015751;28;20168;-65
2024/01/23 05:06:59;;;;;;;2.70;1.00;;;;;;;17.58;51.56;101357.91;5069181;28;20186;-65
2024/01/23 05:09:24;;;;;;;4.07;1.20;;;;;;;17.55;50.81;101362.31;5035356;28;20206;-65
2024/01/23 05:11:50;;;;;;;2.40;1.10;;;;;;;17.58;50.62;101366.50;5035038;28;20179;-64
2024/01/23 05:14:16;;;;;;;3.00;1.10;;;;;;;17.60;50.54;101367.00;5051727;28;20187;-64
2024/01/23 05:16:41;;;;;;;1.97;1.00;;;;;;;17.59;50.93;101377.56;5021466;28;20187;-64
2024/01/23 05:19:07;;;;;;;2.73;1.07;;;;;;;17.56;50.73;101378.25;5035900;28;20421;-65
2024/01/23 05:21:32;;;;;;;2.93;1.17;;;;;;;17.58;50.36;101377.91;5047235;28;20186;-64
2024/01/23 05:23:58;;;;;;;1.90;0.90;;;;;;;17.58;50.43;101380.75;5073698;28;20657;-64
2024/01/23 05:26:24;;;;;;;3.70;0.90;;;;;;;17.61;50.45;101398.03;5043436;28;20701;-64
2024/01/23 05:28:49;;;;;;;3.50;0.97;;;;;;;17.56;50.92;101412.50;5041487;28;20731;-64
2024/01/23 05:31:15;;;;;;;2.77;1.20;;;;;;;17.60;50.49;101410.63;5070096;28;20193;-65
2024/01/23 05:33:40;;;;;;;2.93;1.00;;;;;;;17.55;50.43;101427.97;5092912;28;20182;-64
2024/01/23 05:36:06;;;;;;;4.30;1.30;;;;;;;17.57;50.28;101436.19;5057769;28;20162;-64
2024/01/23 05:38:32;;;;;;;4.57;1.70;;;;;;;17.62;50.56;101439.69;5092747;28;20181;-65
2024/01/23 05:40:57;;;;;;;3.47;1.37;;;;;;;17.62;50.30;101442.56;5072640;28;20444;-65
2024/01/23 05:43:23;;;;;;;5.00;1.00;;;;;;;17.58;50.26;101444.44;5093013;28;20587;-66
2024/01/23 05:45:49;;;;;;;2.10;1.00;;;;;;;17.59;50.43;101448.09;5092825;28;20228;-64
2024/01/23 05:48:15;;;;;;;2.40;0.80;;;;;;;17.57;50.77;101459.03;5093609;28;20670;-64
2024/01/23 05:50:40;;;;;;;3.87;1.00;;;;;;;17.62;50.32;101467.41;5074426;28;20500;-64
2024/01/23 05:53:06;;;;;;;2.70;1.13;;;;;;;17.60;50.33;101472.66;5093496;28;20261;-64
2024/01/23 05:55:31;;;;;;;2.67;1.20;;;;;;;17.60;50.05;101486.91;5093547;28;20178;-65
2024/01/23 05:57:57;;;;;;;3.73;1.17;;;;;;;17.65;50.27;101496.09;5092469;28;20186;-64
2024/01/23 06:00:22;;;;;;;2.83;1.40;;;;;;;17.58;50.58;101497.84;5091955;28;20182;-66
2024/01/23 06:02:47;;;;;;;2.20;0.97;;;;;;;17.58;50.86;101501.53;5075009;28;20182;-64
2024/01/23 06:05:13;;;;;;;2.30;1.10;;;;;;;17.59;50.49;101508.91;5058335;28;20174;-66
2024/01/23 06:07:41;;;;;;;2.40;1.30;;;;;;;17.58;50.62;101512.97;5068272;28;20182;-64
2024/01/23 06:10:08;;;;;;;3.27;1.13;;;;;;;17.59;50.15;101525.19;5058062;28;20206;-64
2024/01/23 06:12:33;;;;;;;2.27;1.10;;;;;;;17.57;50.84;101531.28;5075018;28;21009;-64
2024/01/23 06:14:59;;;;;;;2.70;0.87;;;;;;;17.56;50.58;101532.44;5058044;28;20448;-64
2024/01/23 06:17:24;;;;;;;2.77;1.00;;;;;;;17.55;50.68;101530.75;5074417;28;20186;-64
2024/01/23 06:19:49;;;;;;;2.63;0.80;;;;;;;17.58;50.56;101534.94;5071921;28;20541;-64
2024/01/23 06:22:15;;;;;;;2.43;0.80;;;;;;;17.56;50.79;101543.03;5093004;28;20577;-65
2024/01/23 06:24:40;;;;;;;2.13;1.03;;;;;;;17.56;51.04;101546.72;5090909;28;20186;-64
2024/01/23 06:27:06;;;;;;;2.60;1.00;;;;;;;17.61;50.49;101549.38;5056763;28;20272;-64
2024/01/23 06:29:32;;;;;;;3.10;1.10;;;;;;;17.59;50.75;101553.75;5071895;28;20190;-65
2024/01/23 06:31:58;;;;;;;3.13;0.97;;;;;;;17.58;50.61;101561.50;5040389;28;20197;-65
2024/01/23 06:34:26;;;;;;;2.53;0.93;;;;;;;17.54;50.75;101563.38;5044976;28;20440;-64
2024/01/23 06:36:52;;;;;;;1.73;0.77;;;;;;;17.59;50.35;101570.88;5057355;28;20420;-65
2024/01/23 06:39:17;;;;;;;2.50;1.13;;;;;;;17.55;50.76;101579.31;5073266;28;21159;-65
2024/01/23 06:41:44;;;;;;;3.40;1.23;;;;;;;17.53;50.75;101584.53;5056963;28;20630;-65
2024/01/23 06:44:09;;;;;;;2.50;1.30;;;;;;;17.58;50.61;101569.22;5092219;28;20174;-64
2024/01/23 06:46:35;;;;;;;3.13;1.33;;;;;;;17.62;50.53;101582.47;5049622;28;20441;-64
2024/01/23 06:49:00;;;;;;;2.77;1.50;;;;;;;17.58;51.08;101590.06;5054664;28;20203;-63
2024/01/23 06:51:27;;;;;;;2.97;1.23;;;;;;;17.58;50.34;101575.78;5072427;28;20170;-64
2024/01/23 06:53:52;;;;;;;2.90;0.90;;;;;;;17.60;50.44;101576.25;5062835;28;20273;-65
2024/01/23 06:56:18;;;;;;;4.53;1.40;;;;;;;17.60;50.83;101599.09;5069421;28;20826;-65
2024/01/23 06:58:43;;;;;;;2.50;0.90;;;;;;;17.64;50.82;101602.09;5057194;28;20179;-65
2024/01/23 07:01:09;;;;;;;2.33;1.00;;;;;;;17.63;50.48;101603.28;5049914;28;20183;-64
2024/01/23 07:03:34;;;;;;;2.00;0.70;;;;;;;17.60;50.50;101624.00;5065577;28;20189;-64
2024/01/23 07:06:00;;;;;;;1.90;0.90;;;;;;;17.63;50.56;101631.84;5053178;28;20187;-65
2024/01/23 07:08:25;;;;;;;2.63;1.00;;;;;;;17.63;50.38;101640.41;5051648;28;20271;-64
2024/01/23 07:10:51;;;;;;;3.00;1.13;;;;;;;17.59;50.78;101645.13;5076817;28;20201;-64
2024/01/23 07:13:16;;;;;;;1.53;0.97;;;;;;;17.61;50.23;101655.03;5055072;28;20542;-64
2024/01/23 07:15:42;;;;;;;2.97;1.00;;;;;;;17.61;50.49;101648.50;5064632;28;20627;-63
2024/01/23 07:18:07;;;;;;;2.43;1.00;;;;;;;17.65;50.25;101658.88;5058732;28;20182;-66
2024/01/23 07:20:33;;;;;;;1.60;0.80;;;;;;;17.67;50.48;101653.69;5090554;28;20281;-64
2024/01/23 07:22:59;;;;;;;2.30;1.10;;;;;;;17.59;50.77;101665.13;5069911;28;20174;-67
2024/01/23 07:25:24;;;;;;;6.67;1.90;;;;;;;17.08;50.35;101671.78;5052466;28;20490;-68
2024/01/23 07:27:50;;;;;;;6.93;2.50;;;;;;;17.35;54.59;101677.09;5052460;28;20214;-66
2024/01/23 07:30:16;;;;;;;10.47;2.67;;;;;;;17.72;55.60;101676.34;5069322;28;20205;-67
2024/01/23 07:32:42;;;;;;;25.43;2.53;;;;;;;17.90;53.33;101677.09;5069120;28;20182;-68
2024/01/23 07:35:08;;;;;;;9.33;2.53;;;;;;;18.30;55.17;101684.94;5037858;28;20506;-68
2024/01/23 07:37:33;;;;;;;12.83;3.00;;;;;;;18.46;53.48;101686.03;5072290;28;20465;-66
2024/01/23 07:39:59;;;;;;;12.10;2.80;;;;;;;18.18;53.00;101695.44;5053844;28;20210;-65
2024/01/23 07:42:24;;;;;;;7.93;2.60;;;;;;;18.13;53.20;101696.47;5042477;28;20268;-65
2024/01/23 07:44:50;;;;;;;9.73;2.30;;;;;;;18.03;52.71;101702.59;5075834;28;20190;-64
2024/01/23 07:47:15;;;;;;;8.20;2.30;;;;;;;18.14;52.78;101705.88;5088122;28;20652;-65
2024/01/23 07:49:41;;;;;;;4.87;1.93;;;;;;;18.12;52.69;101697.63;5065940;28;20990;-64
2024/01/23 07:52:06;;;;;;;7.13;2.00;;;;;;;18.10;52.16;101702.88;5060548;28;20661;-64
2024/01/23 07:54:32;;;;;;;10.10;2.40;;;;;;;18.17;52.46;101705.19;5041443;28;20229;-65
2024/01/23 07:56:58;;;;;;;10.57;2.53;;;;;;;18.22;52.79;101697.25;5049898;28;20187;-65
2024/01/23 07:59:23;;;;;;;6.00;1.67;;;;;;;18.24;52.89;101699.75;5039411;28;20174;-65
2024/01/23 08:01:49;;;;;;;14.47;3.20;;;;;;;18.24;52.10;101708.34;5050902;28;20174;-66
2024/01/23 08:04:14;;;;;;;6.60;2.07;;;;;;;18.40;53.28;101721.72;5068559;28;20260;-65
2024/01/23 08:06:40;;;;;;;8.60;1.90;;;;;;;18.42;52.29;101725.06;5033217;28;20175;-65
2024/01/23 08:09:05;;;;;;;6.90;1.63;;;;;;;18.20;52.98;101725.34;5056007;28;20202;-65
2024/01/23 08:11:31;;;;;;;5.23;1.80;;;;;;;18.23;53.26;101718.97;5035111;28;20187;-66
2024/01/23 08:13:57;;;;;;;6.33;2.13;;;;;;;18.28;52.69;101724.47;5038411;28;20205;-65
2024/01/23 08:16:22;;;;;;;6.00;1.83;;;;;;;18.20;52.59;101722.50;5065629;28;20182;-64
2024/01/23 08:18:47;;;;;;;7.50;2.63;;;;;;;18.17;53.18;101725.22;5058002;28;20178;-64
2024/01/23 08:21:13;;;;;;;6.97;1.73;;;;;;;18.14;53.25;101731.59;5067759;28;20595;-63
2024/01/23 08:23:38;;;;;;;5.00;1.87;;;;;;;18.11;53.27;101741.69;5082865;28;20638;-64
2024/01/23 08:26:04;;;;;;;6.67;1.77;;;;;;;18.11;52.99;101744.56;5058624;28;20239;-64
2024/01/23 08:28:29;;;;;;;8.07;1.80;;;;;;;18.13;52.74;101747.94;5042234;28;20183;-64
2024/01/23 08:30:56;;;;;;;9.20;2.00;;;;;;;18.12;52.60;101745.41;5054789;28;20203;-65
2024/01/23 08:33:22;;;;;;;8.33;2.00;;;;;;;18.09;52.32;101752.66;5046571;28;20557;-64
2024/01/23 08:35:48;;;;;;;5.30;1.90;;;;;;;18.10;51.94;101751.47;5053975;28;20440;-63
2024/01/23 08:38:13;;;;;;;6.20;1.73;;;;;;;18.01;51.86;101752.69;5069206;28;20265;-64
2024/01/23 08:40:39;;;;;;;9.60;2.50;;;;;;;17.96;51.62;101750.03;5035318;28;20175;-65
2024/01/23 08:43:05;;;;;;;11.10;2.20;;;;;;;17.91;50.87;101759.59;5060687;28;20183;-63
2024/01/23 08:45:31;;;;;;;10.50;2.43;;;;;;;17.87;50.82;101757.78;5057886;28;20954;-64
2024/01/23 08:47:56;;;;;;;9.97;2.73;;;;;;;17.85;50.96;101755.25;5032028;28;20253;-64
2024/01/23 08:50:22;;;;;;;9.30;2.30;;;;;;;17.90;50.42;101751.38;5030872;28;20647;-64
2024/01/23 08:52:48;;;;;;;11.07;2.50;;;;;;;17.86;50.53;101758.97;5047987;28;20191;-64
2024/01/23 08:55:14;;;;;;;14.30;2.73;;;;;;;17.88;50.68;101750.88;5042422;28;20233;-65
2024/01/23 08:57:40;;;;;;;10.90;2.77;;;;;;;17.88;51.13;101757.44;5014339;28;20187;-63
2024/01/23 09:00:06;;;;;;;13.07;2.67;;;;;;;17.82;50.33;101758.81;5054829;28;20178;-64
2024/01/23 09:02:31;;;;;;;16.77;2.77;;;;;;;17.87;50.84;101764.34;5052274;28;20535;-64
2024/01/23 09:04:57;;;;;;;8.10;2.13;;;;;;;17.90;51.12;101766.50;5046173;28;20483;-63
2024/01/23 09:07:22;;;;;;;9.40;2.23;;;;;;;17.88;51.25;101774.59;5023700;28;20194;-66
2024/01/23 09:09:49;;;;;;;11.00;2.53;;;;;;;17.89;51.01;101781.97;5042793;28;20199;-64
2024/01/23 09:12:16;;;;;;;9.93;3.10;;;;;;;17.88;50.82;101779.44;5047852;28;20190;-64
2024/01/23 09:14:42;;;;;;;11.83;2.93;;;;;;;17.86;51.22;101799.78;5024824;28;20512;-64
2024/01/23 09:17:08;;;;;;;12.07;2.50;;;;;;;17.83;50.63;101799.63;5030778;28;20433;-66
2024/01/23 09:19:33;;;;;;;9.90;1.90;;;;;;;17.84;50.74;101802.16;5058883;28;20436;-64
2024/01/23 09:21:59;;;;;;;13.67;2.17;;;;;;;17.83;53.70;101813.91;5031827;28;20183;-67
2024/01/23 09:24:24;;;;;;;14.73;2.63;;;;;;;17.92;53.98;101821.31;5021699;28;20187;-67
2024/01/23 09:26:50;;;;;;;17.40;2.40;;;;;;;17.89;53.97;101815.41;5016831;28;20248;-66
2024/01/23 09:29:16;;;;;;;10.97;2.67;;;;;;;17.92;55.00;101814.72;5046417;28;20218;-67
2024/01/23 09:31:45;;;;;;;11.03;2.37;;;;;;;17.91;54.50;101828.16;5053201;28;21152;-62
2024/01/23 09:34:11;;;;;;;12.57;2.93;;;;;;;17.87;54.08;101824.34;5055740;28;20187;-63
2024/01/23 09:36:36;;;;;;;19.67;4.00;;;;;;;17.89;54.13;101827.69;5017921;28;20440;-63
2024/01/23 09:39:01;;;;;;;11.23;2.70;;;;;;;17.93;54.32;101831.53;5034485;28;20198;-63
2024/01/23 09:41:27;;;;;;;11.73;2.53;;;;;;;17.98;54.22;101833.38;5050701;28;20190;-63
2024/01/23 09:43:52;;;;;;;9.70;2.43;;;;;;;17.90;54.23;101829.34;5032691;28;20936;-63
2024/01/23 09:46:18;;;;;;;14.50;3.27;;;;;;;17.89;53.76;101830.53;5049920;28;20799;-63
2024/01/23 09:48:45;;;;;;;11.80;3.40;;;;;;;17.91;53.77;101825.31;5017307;28;20617;-64
2024/01/23 09:51:14;;;;;;;9.80;2.83;;;;;;;17.95;53.19;101839.75;5051367;28;20542;-64
2024/01/23 09:53:40;;;;;;;11.33;2.50;;;;;;;17.95;53.38;101836.88;5034377;28;20464;-64
2024/01/23 09:56:07;;;;;;;16.43;2.23;;;;;;;17.95;53.37;101839.75;5068588;28;20441;-63
2024/01/23 09:58:32;;;;;;;12.93;2.90;;;;;;;17.96;53.45;101841.44;5033952;28;20923;-63
2024/01/23 10:00:59;;;;;;;10.93;2.73;;;;;;;17.97;53.09;101845.97;5051565;28;20413;-63
2024/01/23 10:03:24;;;;;;;10.50;2.77;;;;;;;17.99;53.14;101849.31;5033638;28;20198;-64
2024/01/23 10:05:50;;;;;;;10.53;2.50;;;;;;;17.95;53.19;101848.31;5038201;28;20421;-64
2024/01/23 10:08:15;;;;;;;14.53;3.70;;;;;;;17.97;53.24;101855.38;5035783;28;20551;-65
2024/01/23 10:10:41;;;;;;;7.50;2.00;;;;;;;17.94;53.32;101864.66;5053290;28;20230;-63
2024/01/23 10:13:06;;;;;;;9.00;2.47;;;;;;;17.96;53.05;101855.75;5035847;28;20175;-64
2024/01/23 10:15:32;;;;;;;10.67;2.00;;;;;;;17.94;53.55;101838.94;5035703;28;20175;-63
2024/01/23 10:17:57;;;;;;;10.80;2.10;;;;;;;17.91;53.24;101839.59;5035357;28;20185;-63
2024/01/23 10:20:23;;;;;;;6.40;1.90;;;;;;;17.91;53.31;101850.19;5032331;28;20169;-63
2024/01/23 10:22:48;;;;;;;8.67;2.70;;;;;;;17.94;53.20;101853.22;5043919;28;20217;-64
2024/01/23 10:25:18;;;;;;;12.27;2.20;;;;;;;17.92;53.30;101857.59;5051708;28;20213;-63
2024/01/23 10:27:44;;;;;;;9.60;2.20;;;;;;;17.93;53.27;101848.69;5088265;28;20309;-64
2024/01/23 10:30:10;;;;;;;9.23;2.67;;;;;;;17.92;53.61;101849.03;5072830;28;20456;-64
2024/01/23 10:32:36;;;;;;;13.40;2.80;;;;;;;17.92;53.31;101855.59;5073555;28;20183;-63
2024/01/23 10:35:03;;;;;;;6.73;2.20;;;;;;;17.94;53.36;101844.66;5073709;28;20171;-63
2024/01/23 10:37:28;;;;;;;13.03;2.70;;;;;;;17.92;53.40;101837.59;5073285;28;20432;-64
2024/01/23 10:39:54;;;;;;;7.50;2.30;;;;;;;17.89;53.44;101839.09;5071567;28;20942;-63
2024/01/23 10:42:19;;;;;;;8.73;2.27;;;;;;;17.92;52.92;101835.59;5062999;28;20583;-64
2024/01/23 10:44:48;;;;;;;9.53;2.47;;;;;;;17.91;53.07;101825.31;5057596;28;20190;-63
2024/01/23 10:47:15;;;;;;;10.13;2.03;;;;;;;17.90;53.17;101820.78;5074183;28;20178;-64
2024/01/23 10:49:42;;;;;;;5.80;2.17;;;;;;;17.90;53.09;101806.50;5091813;28;20467;-63
2024/01/23 10:52:09;;;;;;;8.00;1.97;;;;;;;17.91;53.34;101801.63;5090281;28;20617;-64
2024/01/23 10:54:35;;;;;;;6.33;1.80;;;;;;;17.91;53.29;101791.03;5088780;28;20427;-63
2024/01/23 10:57:02;;;;;;;11.57;2.40;;;;;;;17.91;52.87;101791.03;5037161;28;20430;-63
2024/01/23 10:59:29;;;;;;;7.00;2.00;;;;;;;17.96;52.92;101790.03;5036494;28;20178;-63
2024/01/23 11:02:33;;;;;;;7.60;2.40;;;;;;;17.98;52.76;101794.22;5069068;28;20725;-63
2024/01/23 11:04:59;;;;;;;6.77;1.90;;;;;;;17.95;52.97;101794.88;5067009;28;20431;-63
2024/01/23 11:07:34;;;;;;;6.70;2.10;;;;;;;17.98;52.54;101790.50;5051394;28;20429;-64
2024/01/23 11:10:24;;;;;;;6.40;2.30;;;;;;;18.01;52.81;101790.66;5053184;28;20535;-63
2024/01/23 11:13:30;;;;;;;8.20;2.23;;;;;;;17.98;52.68;101788.50;5065001;28;20436;-63
2024/01/23 11:15:56;;;;;;;9.00;1.93;;;;;;;18.00;52.83;101783.28;5075359;28;20452;-64
2024/01/23 11:18:28;;;;;;;10.10;1.80;;;;;;;18.02;52.53;101780.06;5072981;28;20462;-63